sensor_id;sensor_type;location;lat;lon;timestamp;pressure;altitude;pressure_sealevel;temperature;humidity
11971;BME280;6045;42.682;23.294;2022-09-09T00:47:53;94817.47;;;20.77;68.53
11971;BME280;6045;42.682;23.294;2022-09-09T00:50:35;94812.50;;;20.84;68.35
11971;BME280;6045;42.682;23.294;2022-09-09T00:53:15;94808.16;;;20.83;68.28
11971;BME280;6045;42.682;23.294;2022-09-09T00:55:48;94816.25;;;20.88;68.00
11971;BME280;6045;42.682;23.294;2022-09-09T00:58:15;94811.13;;;20.86;68.85
11971;BME280;6045;42.682;23.294;2022-09-09T01:00:44;94812.72;;;20.87;68.61
11971;BME280;6045;42.682;23.294;2022-09-09T01:03:22;94815.81;;;20.81;68.29
11971;BME280;6045;42.682;23.294;2022-09-09T01:06:00;94819.38;;;20.76;68.61
11971;BME280;6045;42.682;23.294;2022-09-09T01:08:40;94822.16;;;20.71;69.01
11971;BME280;6045;42.682;23.294;2022-09-09T01:11:14;94816.75;;;20.66;69.03
11971;BME280;6045;42.682;23.294;2022-09-09T01:13:45;94814.34;;;20.65;68.78
11971;BME280;6045;42.682;23.294;2022-09-09T01:16:34;94822.50;;;20.65;69.34
11971;BME280;6045;42.682;23.294;2022-09-09T01:19:02;94825.78;;;20.62;69.60
11971;BME280;6045;42.682;23.294;2022-09-09T01:21:37;94822.03;;;20.58;69.28
11971;BME280;6045;42.682;23.294;2022-09-09T01:24:25;94820.38;;;20.57;69.07
11971;BME280;6045;42.682;23.294;2022-09-09T01:26:58;94817.19;;;20.50;69.76
11971;BME280;6045;42.682;23.294;2022-09-09T01:29:26;94815.66;;;20.43;70.30
11971;BME280;6045;42.682;23.294;2022-09-09T01:31:55;94817.25;;;20.44;70.01
11971;BME280;6045;42.682;23.294;2022-09-09T01:34:24;94815.66;;;20.43;70.13
11971;BME280;6045;42.682;23.294;2022-09-09T01:43:41;94820.88;;;20.35;70.39
11971;BME280;6045;42.682;23.294;2022-09-09T01:49:41;94836.44;;;20.24;70.88
11971;BME280;6045;42.682;23.294;2022-09-09T01:52:08;94836.97;;;20.21;71.04
11971;BME280;6045;42.682;23.294;2022-09-09T01:54:47;94839.16;;;20.19;71.35
11971;BME280;6045;42.682;23.294;2022-09-09T01:57:26;94841.88;;;20.19;71.41
11971;BME280;6045;42.682;23.294;2022-09-09T02:00:50;94842.19;;;20.18;71.15
11971;BME280;6045;42.682;23.294;2022-09-09T02:03:54;94835.09;;;20.22;71.94
11971;BME280;6045;42.682;23.294;2022-09-09T02:06:35;94835.94;;;20.22;71.77
11971;BME280;6045;42.682;23.294;2022-09-09T02:09:12;94832.66;;;20.20;71.58
11971;BME280;6045;42.682;23.294;2022-09-09T02:15:38;94816.44;;;20.10;71.39
11971;BME280;6045;42.682;23.294;2022-09-09T02:18:08;94816.25;;;20.02;71.60
11971;BME280;6045;42.682;23.294;2022-09-09T02:20:41;94811.13;;;19.95;72.14
11971;BME280;6045;42.682;23.294;2022-09-09T02:23:15;94812.25;;;19.94;72.40
11971;BME280;6045;42.682;23.294;2022-09-09T02:25:43;94819.25;;;19.95;72.13
11971;BME280;6045;42.682;23.294;2022-09-09T02:28:18;94814.91;;;19.99;71.89
11971;BME280;6045;42.682;23.294;2022-09-09T02:30:53;94820.34;;;19.99;71.38
11971;BME280;6045;42.682;23.294;2022-09-09T02:33:25;94810.56;;;19.98;71.64
11971;BME280;6045;42.682;23.294;2022-09-09T02:35:56;94820.34;;;19.99;71.66
11971;BME280;6045;42.682;23.294;2022-09-09T02:38:30;94835.81;;;19.99;71.88
11971;BME280;6045;42.682;23.294;2022-09-09T02:41:00;94839.34;;;19.99;72.28
11971;BME280;6045;42.682;23.294;2022-09-09T02:43:31;94840.41;;;19.98;72.47
11971;BME280;6045;42.682;23.294;2022-09-09T02:46:03;94840.22;;;19.90;72.65
11971;BME280;6045;42.682;23.294;2022-09-09T02:48:43;94840.47;;;19.88;72.00
11971;BME280;6045;42.682;23.294;2022-09-09T02:51:19;94835.13;;;19.83;71.80
11971;BME280;6045;42.682;23.294;2022-09-09T02:53:50;94833.47;;;19.82;71.84
11971;BME280;6045;42.682;23.294;2022-09-09T02:56:23;94836.75;;;19.79;71.15
11971;BME280;6045;42.682;23.294;2022-09-09T02:58:53;94826.47;;;19.76;71.32
11971;BME280;6045;42.682;23.294;2022-09-09T03:01:22;94838.13;;;19.76;72.05
11971;BME280;6045;42.682;23.294;2022-09-09T03:03:49;94847.91;;;19.77;71.99
11971;BME280;6045;42.682;23.294;2022-09-09T03:06:15;94835.19;;;19.73;71.86
11971;BME280;6045;42.682;23.294;2022-09-09T03:08:42;94835.72;;;19.70;71.73
11971;BME280;6045;42.682;23.294;2022-09-09T03:11:09;94838.16;;;19.71;71.24
11971;BME280;6045;42.682;23.294;2022-09-09T03:13:36;94835.44;;;19.71;71.41
11971;BME280;6045;42.682;23.294;2022-09-09T03:16:03;94840.63;;;19.68;71.86
11971;BME280;6045;42.682;23.294;2022-09-09T03:18:32;94836.88;;;19.64;72.12
11971;BME280;6045;42.682;23.294;2022-09-09T03:20:59;94843.38;;;19.63;71.84
11971;BME280;6045;42.682;23.294;2022-09-09T03:23:26;94830.66;;;19.58;72.07
11971;BME280;6045;42.682;23.294;2022-09-09T03:25:53;94828.50;;;19.55;72.06
11971;BME280;6045;42.682;23.294;2022-09-09T03:28:22;94832.06;;;19.46;71.87
11971;BME280;6045;42.682;23.294;2022-09-09T03:30:58;94832.66;;;19.43;71.78
11971;BME280;6045;42.682;23.294;2022-09-09T03:33:25;94832.88;;;19.46;71.56
11971;BME280;6045;42.682;23.294;2022-09-09T03:35:53;94833.44;;;19.43;71.19
11971;BME280;6045;42.682;23.294;2022-09-09T03:38:22;94839.69;;;19.39;71.43
11971;BME280;6045;42.682;23.294;2022-09-09T03:40:50;94835.91;;;19.40;71.75
11971;BME280;6045;42.682;23.294;2022-09-09T03:43:35;94834.81;;;19.41;71.85
11971;BME280;6045;42.682;23.294;2022-09-09T03:46:14;94830.19;;;19.46;71.04
11971;BME280;6045;42.682;23.294;2022-09-09T03:48:41;94824.44;;;19.53;71.09
11971;BME280;6045;42.682;23.294;2022-09-09T03:51:09;94830.38;;;19.55;71.13
11971;BME280;6045;42.682;23.294;2022-09-09T03:53:36;94834.75;;;19.51;70.93
11971;BME280;6045;42.682;23.294;2022-09-09T03:56:15;94835.88;;;19.45;70.98
11971;BME280;6045;42.682;23.294;2022-09-09T03:59:01;94839.16;;;19.42;72.06
11971;BME280;6045;42.682;23.294;2022-09-09T04:01:28;94837.72;;;19.54;78.15
11971;BME280;6045;42.682;23.294;2022-09-09T04:03:55;94840.81;;;19.82;77.22
11971;BME280;6045;42.682;23.294;2022-09-09T04:06:24;94845.22;;;20.11;74.55
11971;BME280;6045;42.682;23.294;2022-09-09T04:08:52;94850.91;;;20.49;71.79
11971;BME280;6045;42.682;23.294;2022-09-09T04:11:19;94850.13;;;20.72;69.85
11971;BME280;6045;42.682;23.294;2022-09-09T04:13:45;94843.53;;;20.78;69.08
11971;BME280;6045;42.682;23.294;2022-09-09T04:16:13;94840.66;;;20.93;68.51
11971;BME280;6045;42.682;23.294;2022-09-09T04:18:40;94841.56;;;21.36;67.34
11971;BME280;6045;42.682;23.294;2022-09-09T04:21:07;94844.56;;;21.53;65.79
11971;BME280;6045;42.682;23.294;2022-09-09T04:23:36;94846.56;;;21.47;65.14
11971;BME280;6045;42.682;23.294;2022-09-09T04:26:04;94840.91;;;21.62;65.45
11971;BME280;6045;42.682;23.294;2022-09-09T04:28:34;94840.13;;;21.80;63.67
11971;BME280;6045;42.682;23.294;2022-09-09T04:31:05;94849.78;;;21.92;62.64
11971;BME280;6045;42.682;23.294;2022-09-09T04:33:33;94847.44;;;22.04;62.14
11971;BME280;6045;42.682;23.294;2022-09-09T04:36:00;94851.09;;;22.13;62.37
11971;BME280;6045;42.682;23.294;2022-09-09T04:38:27;94838.56;;;22.30;62.50
11971;BME280;6045;42.682;23.294;2022-09-09T04:40:55;94849.44;;;22.49;62.42
11971;BME280;6045;42.682;23.294;2022-09-09T04:43:22;94855.13;;;22.66;62.67
11971;BME280;6045;42.682;23.294;2022-09-09T04:45:51;94852.66;;;22.83;61.42
11971;BME280;6045;42.682;23.294;2022-09-09T04:48:18;94849.25;;;22.91;60.74
11971;BME280;6045;42.682;23.294;2022-09-09T04:50:53;94824.00;;;22.86;59.35
11971;BME280;6045;42.682;23.294;2022-09-09T04:53:21;94830.84;;;22.83;59.71
11971;BME280;6045;42.682;23.294;2022-09-09T04:55:48;94835.00;;;22.94;59.84
11971;BME280;6045;42.682;23.294;2022-09-09T04:58:16;94839.25;;;23.14;60.61
11971;BME280;6045;42.682;23.294;2022-09-09T05:00:43;94837.25;;;23.33;59.01
11971;BME280;6045;42.682;23.294;2022-09-09T05:03:10;94835.66;;;23.46;58.59
11971;BME280;6045;42.682;23.294;2022-09-09T05:05:38;94827.25;;;23.56;58.70
11971;BME280;6045;42.682;23.294;2022-09-09T05:08:06;94810.16;;;23.64;59.17
11971;BME280;6045;42.682;23.294;2022-09-09T05:10:35;94810.75;;;23.61;58.63
11971;BME280;6045;42.682;23.294;2022-09-09T05:13:03;94820.25;;;23.63;59.51
11971;BME280;6045;42.682;23.294;2022-09-09T05:15:31;94837.94;;;23.66;60.52
11971;BME280;6045;42.682;23.294;2022-09-09T05:17:58;94838.56;;;23.63;59.96
11971;BME280;6045;42.682;23.294;2022-09-09T05:20:25;94824.78;;;23.68;60.40
11971;BME280;6045;42.682;23.294;2022-09-09T05:22:53;94820.53;;;23.75;60.10
11971;BME280;6045;42.682;23.294;2022-09-09T05:25:19;94814.31;;;23.97;59.83
11971;BME280;6045;42.682;23.294;2022-09-09T05:27:47;94822.53;;;24.19;59.20
11971;BME280;6045;42.682;23.294;2022-09-09T05:30:15;94820.19;;;24.26;57.80
11971;BME280;6045;42.682;23.294;2022-09-09T05:32:43;94828.50;;;24.21;57.16
11971;BME280;6045;42.682;23.294;2022-09-09T05:35:10;94833.84;;;24.26;58.05
11971;BME280;6045;42.682;23.294;2022-09-09T05:37:36;94820.75;;;24.37;57.11
11971;BME280;6045;42.682;23.294;2022-09-09T05:40:04;94818.44;;;24.53;57.46
11971;BME280;6045;42.682;23.294;2022-09-09T05:42:32;94836.69;;;24.88;56.98
11971;BME280;6045;42.682;23.294;2022-09-09T05:44:59;94831.44;;;25.00;55.82
11971;BME280;6045;42.682;23.294;2022-09-09T05:47:25;94830.50;;;25.04;55.63
11971;BME280;6045;42.682;23.294;2022-09-09T05:49:55;94836.19;;;25.17;56.21
11971;BME280;6045;42.682;23.294;2022-09-09T05:52:21;94836.25;;;25.34;55.03
11971;BME280;6045;42.682;23.294;2022-09-09T05:54:49;94842.34;;;25.70;51.69
11971;BME280;6045;42.682;23.294;2022-09-09T05:57:15;94835.13;;;25.83;52.22
11971;BME280;6045;42.682;23.294;2022-09-09T05:59:42;94835.28;;;25.77;53.09
11971;BME280;6045;42.682;23.294;2022-09-09T06:02:09;94832.91;;;26.02;52.68
11971;BME280;6045;42.682;23.294;2022-09-09T06:04:36;94842.59;;;26.42;51.75
11971;BME280;6045;42.682;23.294;2022-09-09T06:07:05;94847.94;;;26.47;52.28
11971;BME280;6045;42.682;23.294;2022-09-09T06:09:32;94859.69;;;26.56;51.94
11971;BME280;6045;42.682;23.294;2022-09-09T06:11:59;94849.22;;;26.58;50.17
11971;BME280;6045;42.682;23.294;2022-09-09T06:14:25;94845.84;;;26.44;50.38
11971;BME280;6045;42.682;23.294;2022-09-09T06:16:52;94847.75;;;26.52;50.11
11971;BME280;6045;42.682;23.294;2022-09-09T06:19:19;94847.44;;;26.54;50.85
11971;BME280;6045;42.682;23.294;2022-09-09T06:21:46;94846.78;;;26.65;48.29
11971;BME280;6045;42.682;23.294;2022-09-09T06:24:14;94842.72;;;26.71;50.61
11971;BME280;6045;42.682;23.294;2022-09-09T06:26:42;94841.28;;;26.91;51.65
11971;BME280;6045;42.682;23.294;2022-09-09T06:29:10;94849.28;;;27.13;49.65
11971;BME280;6045;42.682;23.294;2022-09-09T06:31:38;94850.75;;;27.57;49.16
11971;BME280;6045;42.682;23.294;2022-09-09T06:34:06;94838.84;;;27.73;45.21
11971;BME280;6045;42.682;23.294;2022-09-09T06:36:34;94837.34;;;27.55;48.32
11971;BME280;6045;42.682;23.294;2022-09-09T06:39:02;94829.88;;;27.64;47.41
11971;BME280;6045;42.682;23.294;2022-09-09T06:41:33;94833.78;;;27.55;46.03
11971;BME280;6045;42.682;23.294;2022-09-09T06:44:01;94833.59;;;27.60;46.49
11971;BME280;6045;42.682;23.294;2022-09-09T06:46:29;94820.34;;;27.62;45.21
11971;BME280;6045;42.682;23.294;2022-09-09T06:48:58;94837.19;;;27.81;45.84
11971;BME280;6045;42.682;23.294;2022-09-09T06:51:26;94846.59;;;28.30;46.18
11971;BME280;6045;42.682;23.294;2022-09-09T06:53:55;94846.56;;;28.71;45.43
11971;BME280;6045;42.682;23.294;2022-09-09T06:56:24;94853.22;;;28.70;44.40
11971;BME280;6045;42.682;23.294;2022-09-09T06:58:55;94855.91;;;28.58;43.96
11971;BME280;6045;42.682;23.294;2022-09-09T07:01:24;94853.94;;;28.79;44.27
11971;BME280;6045;42.682;23.294;2022-09-09T07:03:54;94850.84;;;28.81;44.36
11971;BME280;6045;42.682;23.294;2022-09-09T07:06:22;94851.78;;;28.85;43.60
11971;BME280;6045;42.682;23.294;2022-09-09T07:08:50;94858.06;;;29.06;43.55
11971;BME280;6045;42.682;23.294;2022-09-09T07:11:19;94856.63;;;29.33;41.38
11971;BME280;6045;42.682;23.294;2022-09-09T07:13:47;94843.66;;;28.88;42.36
11971;BME280;6045;42.682;23.294;2022-09-09T07:16:17;94839.06;;;28.80;42.30
11971;BME280;6045;42.682;23.294;2022-09-09T07:18:44;94839.16;;;28.84;43.03
11971;BME280;6045;42.682;23.294;2022-09-09T07:21:13;94836.81;;;28.94;43.08
11971;BME280;6045;42.682;23.294;2022-09-09T07:23:41;94841.06;;;29.16;43.63
11971;BME280;6045;42.682;23.294;2022-09-09T07:26:09;94836.56;;;29.20;41.78
11971;BME280;6045;42.682;23.294;2022-09-09T07:28:36;94839.88;;;28.93;41.38
11971;BME280;6045;42.682;23.294;2022-09-09T07:31:04;94837.06;;;29.13;41.49
11971;BME280;6045;42.682;23.294;2022-09-09T07:33:34;94832.16;;;29.19;41.97
11971;BME280;6045;42.682;23.294;2022-09-09T07:36:06;94824.72;;;29.20;42.87
11971;BME280;6045;42.682;23.294;2022-09-09T07:38:38;94834.72;;;29.36;41.38
11971;BME280;6045;42.682;23.294;2022-09-09T07:41:06;94830.81;;;29.49;40.06
11971;BME280;6045;42.682;23.294;2022-09-09T07:43:34;94842.31;;;29.75;42.52
11971;BME280;6045;42.682;23.294;2022-09-09T07:46:01;94845.75;;;30.21;40.01
11971;BME280;6045;42.682;23.294;2022-09-09T07:48:28;94846.78;;;30.68;38.81
11971;BME280;6045;42.682;23.294;2022-09-09T07:51:06;94842.13;;;30.57;38.33
11971;BME280;6045;42.682;23.294;2022-09-09T07:53:33;94846.03;;;30.83;39.71
11971;BME280;6045;42.682;23.294;2022-09-09T07:56:06;94841.28;;;31.39;36.67
11971;BME280;6045;42.682;23.294;2022-09-09T07:58:35;94836.63;;;31.90;35.70
11971;BME280;6045;42.682;23.294;2022-09-09T08:01:06;94839.84;;;31.92;35.35
11971;BME280;6045;42.682;23.294;2022-09-09T08:03:33;94842.53;;;31.73;34.26
11971;BME280;6045;42.682;23.294;2022-09-09T08:06:01;94835.00;;;31.27;36.01
11971;BME280;6045;42.682;23.294;2022-09-09T08:08:49;94839.25;;;30.81;37.23
11971;BME280;6045;42.682;23.294;2022-09-09T08:11:16;94840.63;;;30.59;37.97
11971;BME280;6045;42.682;23.294;2022-09-09T08:13:44;94840.16;;;30.57;39.44
11971;BME280;6045;42.682;23.294;2022-09-09T08:16:13;94837.09;;;30.74;38.62
11971;BME280;6045;42.682;23.294;2022-09-09T08:18:41;94836.16;;;30.82;38.07
11971;BME280;6045;42.682;23.294;2022-09-09T08:21:09;94840.53;;;31.27;37.83
11971;BME280;6045;42.682;23.294;2022-09-09T08:23:38;94834.63;;;31.56;35.92
11971;BME280;6045;42.682;23.294;2022-09-09T08:26:11;94837.72;;;31.86;35.76
11971;BME280;6045;42.682;23.294;2022-09-09T08:28:39;94829.88;;;31.72;37.00
11971;BME280;6045;42.682;23.294;2022-09-09T08:31:08;94825.03;;;31.38;37.18
11971;BME280;6045;42.682;23.294;2022-09-09T08:33:36;94827.03;;;31.09;36.42
11971;BME280;6045;42.682;23.294;2022-09-09T08:36:05;94837.03;;;30.86;37.96
11971;BME280;6045;42.682;23.294;2022-09-09T08:38:32;94833.13;;;30.60;39.18
11971;BME280;6045;42.682;23.294;2022-09-09T08:41:12;94835.28;;;30.26;39.49
11971;BME280;6045;42.682;23.294;2022-09-09T08:43:41;94831.06;;;30.05;40.00
11971;BME280;6045;42.682;23.294;2022-09-09T08:46:12;94822.59;;;29.86;39.44
11971;BME280;6045;42.682;23.294;2022-09-09T08:48:52;94824.66;;;29.89;39.44
11971;BME280;6045;42.682;23.294;2022-09-09T08:51:25;94823.34;;;30.10;40.09
11971;BME280;6045;42.682;23.294;2022-09-09T08:53:54;94819.28;;;30.72;38.02
11971;BME280;6045;42.682;23.294;2022-09-09T08:56:27;94821.34;;;31.02;37.64
11971;BME280;6045;42.682;23.294;2022-09-09T08:58:55;94823.03;;;31.07;37.24
11971;BME280;6045;42.682;23.294;2022-09-09T09:01:43;94819.03;;;30.77;37.38
11971;BME280;6045;42.682;23.294;2022-09-09T09:04:26;94824.59;;;30.13;38.21
11971;BME280;6045;42.682;23.294;2022-09-09T09:07:04;94818.63;;;30.23;38.69
11971;BME280;6045;42.682;23.294;2022-09-09T09:09:40;94817.81;;;30.62;38.00
11971;BME280;6045;42.682;23.294;2022-09-09T09:12:19;94816.28;;;31.20;36.21
11971;BME280;6045;42.682;23.294;2022-09-09T09:14:47;94820.06;;;31.59;35.26
11971;BME280;6045;42.682;23.294;2022-09-09T09:17:17;94819.09;;;31.67;33.96
11971;BME280;6045;42.682;23.294;2022-09-09T09:19:46;94816.22;;;31.32;35.63
11971;BME280;6045;42.682;23.294;2022-09-09T09:22:17;94808.53;;;31.10;35.57
11971;BME280;6045;42.682;23.294;2022-09-09T09:24:50;94813.97;;;30.51;36.54
11971;BME280;6045;42.682;23.294;2022-09-09T09:27:28;94815.50;;;30.24;37.78
11971;BME280;6045;42.682;23.294;2022-09-09T09:29:59;94818.19;;;30.09;37.27
11971;BME280;6045;42.682;23.294;2022-09-09T09:32:32;94818.94;;;29.82;38.22
11971;BME280;6045;42.682;23.294;2022-09-09T09:35:02;94816.28;;;29.49;39.24
11971;BME280;6045;42.682;23.294;2022-09-09T09:37:34;94809.84;;;29.00;40.10
11971;BME280;6045;42.682;23.294;2022-09-09T09:40:11;94812.63;;;29.12;40.05
11971;BME280;6045;42.682;23.294;2022-09-09T09:42:49;94802.34;;;29.21;40.72
11971;BME280;6045;42.682;23.294;2022-09-09T09:45:28;94800.75;;;29.44;39.49
11971;BME280;6045;42.682;23.294;2022-09-09T09:48:01;94796.56;;;29.14;39.29
11971;BME280;6045;42.682;23.294;2022-09-09T09:50:29;94794.22;;;28.80;39.88
11971;BME280;6045;42.682;23.294;2022-09-09T09:52:58;94792.47;;;28.75;40.20
11971;BME280;6045;42.682;23.294;2022-09-09T09:55:25;94786.47;;;28.61;40.77
11971;BME280;6045;42.682;23.294;2022-09-09T09:58:01;94788.88;;;28.42;42.76
11971;BME280;6045;42.682;23.294;2022-09-09T10:00:29;94779.09;;;28.32;42.37
11971;BME280;6045;42.682;23.294;2022-09-09T10:02:56;94782.47;;;28.17;42.42
11971;BME280;6045;42.682;23.294;2022-09-09T10:05:25;94783.69;;;28.28;42.33
11971;BME280;6045;42.682;23.294;2022-09-09T10:08:03;94798.44;;;28.24;43.00
11971;BME280;6045;42.682;23.294;2022-09-09T10:10:50;94798.34;;;28.32;42.30
11971;BME280;6045;42.682;23.294;2022-09-09T10:13:27;94799.16;;;28.33;42.36
11971;BME280;6045;42.682;23.294;2022-09-09T10:16:06;94800.75;;;28.34;43.02
11971;BME280;6045;42.682;23.294;2022-09-09T10:18:45;94797.44;;;28.28;43.15
11971;BME280;6045;42.682;23.294;2022-09-09T10:21:36;94803.78;;;28.20;43.59
11971;BME280;6045;42.682;23.294;2022-09-09T10:24:24;94809.50;;;28.15;43.83
11971;BME280;6045;42.682;23.294;2022-09-09T10:27:01;94807.28;;;28.09;44.58
11971;BME280;6045;42.682;23.294;2022-09-09T10:29:46;94800.50;;;28.06;44.83
11971;BME280;6045;42.682;23.294;2022-09-09T10:32:32;94798.44;;;28.03;44.04
11971;BME280;6045;42.682;23.294;2022-09-09T10:35:04;94803.91;;;28.03;44.13
11971;BME280;6045;42.682;23.294;2022-09-09T10:37:50;94806.84;;;27.98;44.56
11971;BME280;6045;42.682;23.294;2022-09-09T10:40:28;94802.69;;;27.92;44.69
11971;BME280;6045;42.682;23.294;2022-09-09T10:43:07;94804.97;;;27.90;45.23
11971;BME280;6045;42.682;23.294;2022-09-09T10:45:45;94806.91;;;27.90;45.67
11971;BME280;6045;42.682;23.294;2022-09-09T10:48:28;94809.94;;;27.97;45.89
11971;BME280;6045;42.682;23.294;2022-09-09T10:51:06;94811.03;;;28.04;46.01
11971;BME280;6045;42.682;23.294;2022-09-09T10:53:46;94810.84;;;28.09;45.61
11971;BME280;6045;42.682;23.294;2022-09-09T10:56:20;94811.78;;;28.13;45.41
11971;BME280;6045;42.682;23.294;2022-09-09T10:58:52;94806.66;;;28.03;45.55
11971;BME280;6045;42.682;23.294;2022-09-09T11:01:25;94804.91;;;27.99;45.80
11971;BME280;6045;42.682;23.294;2022-09-09T11:03:56;94799.28;;;27.95;46.11
11971;BME280;6045;42.682;23.294;2022-09-09T11:06:29;94801.34;;;27.98;46.27
11971;BME280;6045;42.682;23.294;2022-09-09T11:08:59;94805.78;;;27.91;45.75
11971;BME280;6045;42.682;23.294;2022-09-09T11:11:32;94803.50;;;27.93;46.38
11971;BME280;6045;42.682;23.294;2022-09-09T11:14:05;94801.56;;;27.93;45.89
11971;BME280;6045;42.682;23.294;2022-09-09T11:16:40;94795.56;;;28.00;46.37
11971;BME280;6045;42.682;23.294;2022-09-09T11:19:15;94790.91;;;28.12;46.06
11971;BME280;6045;42.682;23.294;2022-09-09T11:21:46;94792.41;;;28.30;45.84
11971;BME280;6045;42.682;23.294;2022-09-09T11:24:19;94793.72;;;28.45;45.34
11971;BME280;6045;42.682;23.294;2022-09-09T11:26:51;94777.25;;;28.57;44.86
11971;BME280;6045;42.682;23.294;2022-09-09T11:29:43;94767.00;;;28.66;45.29
11971;BME280;6045;42.682;23.294;2022-09-09T11:32:25;94768.28;;;28.69;45.94
11971;BME280;6045;42.682;23.294;2022-09-09T11:35:01;94751.53;;;28.74;45.60
11971;BME280;6045;42.682;23.294;2022-09-09T11:37:43;94747.19;;;28.73;46.58
11971;BME280;6045;42.682;23.294;2022-09-09T11:40:19;94750.03;;;28.76;47.53
11971;BME280;6045;42.682;23.294;2022-09-09T11:42:47;94734.47;;;28.80;47.27
11971;BME280;6045;42.682;23.294;2022-09-09T11:45:23;94729.22;;;28.87;46.48
11971;BME280;6045;42.682;23.294;2022-09-09T11:47:56;94724.84;;;28.86;46.99
11971;BME280;6045;42.682;23.294;2022-09-09T11:50:31;94704.75;;;28.86;47.20
11971;BME280;6045;42.682;23.294;2022-09-09T11:53:14;94708.09;;;28.91;47.15
11971;BME280;6045;42.682;23.294;2022-09-09T11:55:42;94712.81;;;29.15;46.37
11971;BME280;6045;42.682;23.294;2022-09-09T11:58:15;94716.16;;;29.45;46.20
11971;BME280;6045;42.682;23.294;2022-09-09T12:00:45;94718.50;;;29.95;44.60
11971;BME280;6045;42.682;23.294;2022-09-09T12:03:38;94718.44;;;30.62;43.55
11971;BME280;6045;42.682;23.294;2022-09-09T12:06:13;94708.97;;;31.38;41.21
11971;BME280;6045;42.682;23.294;2022-09-09T12:08:43;94707.44;;;31.91;40.22
11971;BME280;6045;42.682;23.294;2022-09-09T12:11:11;94709.22;;;32.18;39.87
11971;BME280;6045;42.682;23.294;2022-09-09T12:13:38;94688.72;;;32.57;40.50
11971;BME280;6045;42.682;23.294;2022-09-09T12:16:29;94685.69;;;32.66;38.88
11971;BME280;6045;42.682;23.294;2022-09-09T12:19:15;94685.13;;;32.37;40.04
11971;BME280;6045;42.682;23.294;2022-09-09T12:21:50;94690.91;;;32.10;40.18
11971;BME280;6045;42.682;23.294;2022-09-09T12:24:24;94691.72;;;32.10;39.97
11971;BME280;6045;42.682;23.294;2022-09-09T12:26:59;94685.69;;;32.47;39.92
11971;BME280;6045;42.682;23.294;2022-09-09T12:29:36;94679.84;;;32.93;38.77
11971;BME280;6045;42.682;23.294;2022-09-09T12:32:10;94679.81;;;32.90;37.46
11971;BME280;6045;42.682;23.294;2022-09-09T12:34:40;94674.50;;;32.20;37.25
11971;BME280;6045;42.682;23.294;2022-09-09T12:37:19;94681.56;;;30.98;40.04
11971;BME280;6045;42.682;23.294;2022-09-09T12:39:54;94681.41;;;30.48;40.74
11971;BME280;6045;42.682;23.294;2022-09-09T12:42:23;94674.97;;;30.16;41.86
11971;BME280;6045;42.682;23.294;2022-09-09T12:44:55;94668.47;;;30.08;41.87
11971;BME280;6045;42.682;23.294;2022-09-09T12:47:27;94676.13;;;29.75;43.44
11971;BME280;6045;42.682;23.294;2022-09-09T12:49:58;94671.59;;;29.55;43.25
11971;BME280;6045;42.682;23.294;2022-09-09T12:52:29;94671.38;;;29.48;43.67
11971;BME280;6045;42.682;23.294;2022-09-09T12:55:00;94662.50;;;29.66;43.66
11971;BME280;6045;42.682;23.294;2022-09-09T12:57:33;94672.47;;;30.11;43.74
11971;BME280;6045;42.682;23.294;2022-09-09T13:00:14;94666.97;;;30.38;42.39
11971;BME280;6045;42.682;23.294;2022-09-09T13:02:50;94646.09;;;30.25;42.30
11971;BME280;6045;42.682;23.294;2022-09-09T13:05:22;94637.69;;;30.06;42.12
11971;BME280;6045;42.682;23.294;2022-09-09T13:07:49;94656.34;;;29.45;43.04
11971;BME280;6045;42.682;23.294;2022-09-09T13:10:23;94644.13;;;28.94;44.32
11971;BME280;6045;42.682;23.294;2022-09-09T13:12:52;94649.25;;;28.72;45.49
11971;BME280;6045;42.682;23.294;2022-09-09T13:15:22;94654.88;;;28.75;45.95
11971;BME280;6045;42.682;23.294;2022-09-09T13:17:56;94647.66;;;28.71;46.74
11971;BME280;6045;42.682;23.294;2022-09-09T13:20:25;94635.97;;;28.62;46.81
11971;BME280;6045;42.682;23.294;2022-09-09T13:22:53;94626.09;;;28.61;46.77
11971;BME280;6045;42.682;23.294;2022-09-09T13:25:24;94625.03;;;28.53;46.13
11971;BME280;6045;42.682;23.294;2022-09-09T13:27:56;94620.69;;;28.52;46.75
11971;BME280;6045;42.682;23.294;2022-09-09T13:30:26;94623.06;;;28.41;46.01
11971;BME280;6045;42.682;23.294;2022-09-09T13:33:00;94612.59;;;28.23;46.83
11971;BME280;6045;42.682;23.294;2022-09-09T13:35:29;94613.63;;;28.18;45.40
11971;BME280;6045;42.682;23.294;2022-09-09T13:37:56;94624.03;;;28.13;44.80
11971;BME280;6045;42.682;23.294;2022-09-09T13:40:24;94619.75;;;28.03;46.07
11971;BME280;6045;42.682;23.294;2022-09-09T13:42:52;94609.81;;;28.11;46.25
11971;BME280;6045;42.682;23.294;2022-09-09T13:45:23;94605.97;;;28.24;47.12
11971;BME280;6045;42.682;23.294;2022-09-09T13:47:52;94604.97;;;28.40;47.45
11971;BME280;6045;42.682;23.294;2022-09-09T13:50:22;94599.22;;;28.45;46.28
11971;BME280;6045;42.682;23.294;2022-09-09T13:52:53;94608.19;;;28.67;46.23
11971;BME280;6045;42.682;23.294;2022-09-09T13:55:21;94595.59;;;28.78;44.60
11971;BME280;6045;42.682;23.294;2022-09-09T13:57:52;94597.56;;;28.77;45.15
11971;BME280;6045;42.682;23.294;2022-09-09T14:00:19;94602.03;;;28.70;45.97
11971;BME280;6045;42.682;23.294;2022-09-09T14:02:47;94606.69;;;28.57;44.24
11971;BME280;6045;42.682;23.294;2022-09-09T14:05:14;94606.94;;;28.52;44.84
11971;BME280;6045;42.682;23.294;2022-09-09T14:07:42;94602.97;;;28.62;44.87
11971;BME280;6045;42.682;23.294;2022-09-09T14:10:11;94600.75;;;28.67;45.27
11971;BME280;6045;42.682;23.294;2022-09-09T14:12:38;94599.94;;;28.79;45.57
11971;BME280;6045;42.682;23.294;2022-09-09T14:15:06;94593.53;;;28.87;44.34
11971;BME280;6045;42.682;23.294;2022-09-09T14:17:34;94598.22;;;28.98;44.02
11971;BME280;6045;42.682;23.294;2022-09-09T14:20:02;94591.22;;;29.01;44.01
11971;BME280;6045;42.682;23.294;2022-09-09T14:22:30;94579.41;;;28.88;42.56
11971;BME280;6045;42.682;23.294;2022-09-09T14:24:57;94584.38;;;28.83;44.21